グアテマラシティ の空港の天気 - METARとTAF

ラ・アウロラ国際空港 ( MGGT / GUA ) - グアテマラ グアテマラシティ
飛行場実況気象(Metar)
観測時間12/09 09:00 CST (12/09 15:00 UTC)
風向・風速北北東 9m/s
視程10km以上
天気現象
少しの雲 雲底高度 550m
少しの雲 雲底高度 2440m
気温17℃
湿度77%
気圧1022hPa
METARMGGT 091500Z 02018KT 9999 FEW018 17/13 Q1022 A3018 FEW080
過去の天気等 Google飛行場航空写真 Wunderground天気予報

過去48時間のMETAR

飛行場予報(TAF)
発表時間: 12/09 05:00 CST (12/09 11:00 UTC)
予報対象時間: 9日6時 CST ~ 10日6時 CST
風向・風速北北東 8m/s
視程10km以上
全天の8割程度の雲 雲底高度 430m
9日6時 CST ~ 9日9時 CST に一時的に
全天の8割程度の雲 雲底高度 490m
9日8時 CST ~ 9日10時 CST に徐々に
全天の4割程度の雲 雲底高度 550m
9日13時 CST ~ 9日15時 CST に徐々に
全天の4割程度の雲 雲底高度 610m
9日18時 CST ~ 9日20時 CST に徐々に
全天の4割程度の雲 雲底高度 490m
9日23時 CST ~ 10日1時 CST に一時的に
全天の8割程度の雲 雲底高度 490m
MGGT 091100Z 0912/1012 03016KT 9999 BKN014 TX23/0920Z TN13/0912Z
TEMPO 0912/0915 BKN016
BECMG 0914/0916 SCT018
BECMG 0919/0921 SCT020
BECMG 1000/1002 SCT016
TEMPO 1005/1007 BKN016